sensor_id;sensor_type;location;lat;lon;timestamp;pressure;altitude;pressure_sealevel;temperature;humidity
74329;BME280;62749;51.982;5.916;2023-06-10T00:00:34;101279.44;;;22.97;46.38
74329;BME280;62749;51.982;5.916;2023-06-10T00:03:03;101296.97;;;22.92;46.07
74329;BME280;62749;51.982;5.916;2023-06-10T00:05:32;101283.03;;;22.87;45.94
74329;BME280;62749;51.982;5.916;2023-06-10T00:08:05;101283.69;;;22.79;46.34
74329;BME280;62749;51.982;5.916;2023-06-10T00:10:38;101286.06;;;22.72;45.97
74329;BME280;62749;51.982;5.916;2023-06-10T00:13:08;101292.97;;;22.65;46.06
74329;BME280;62749;51.982;5.916;2023-06-10T00:15:38;101299.50;;;22.62;46.42
74329;BME280;62749;51.982;5.916;2023-06-10T00:18:07;101289.97;;;22.58;46.03
74329;BME280;62749;51.982;5.916;2023-06-10T00:20:36;101295.88;;;22.52;45.98
74329;BME280;62749;51.982;5.916;2023-06-10T00:23:09;101289.56;;;22.42;46.15
74329;BME280;62749;51.982;5.916;2023-06-10T00:25:38;101302.75;;;22.45;46.11
74329;BME280;62749;51.982;5.916;2023-06-10T00:28:07;101293.19;;;22.41;46.29
74329;BME280;62749;51.982;5.916;2023-06-10T00:30:37;101296.28;;;22.36;46.05
74329;BME280;62749;51.982;5.916;2023-06-10T00:33:06;101290.94;;;22.25;45.78
74329;BME280;62749;51.982;5.916;2023-06-10T00:35:36;101285.97;;;22.20;46.39
74329;BME280;62749;51.982;5.916;2023-06-10T00:38:09;101295.09;;;22.29;45.43
74329;BME280;62749;51.982;5.916;2023-06-10T00:40:39;101295.00;;;22.19;45.83
74329;BME280;62749;51.982;5.916;2023-06-10T00:43:09;101295.66;;;22.11;45.83
74329;BME280;62749;51.982;5.916;2023-06-10T00:45:38;101299.22;;;22.12;45.78
74329;BME280;62749;51.982;5.916;2023-06-10T00:48:08;101292.63;;;22.04;45.74
74329;BME280;62749;51.982;5.916;2023-06-10T00:50:38;101294.47;;;22.04;45.91
74329;BME280;62749;51.982;5.916;2023-06-10T00:53:11;101296.28;;;22.03;45.66
74329;BME280;62749;51.982;5.916;2023-06-10T00:55:41;101296.56;;;22.00;45.57
74329;BME280;62749;51.982;5.916;2023-06-10T00:58:11;101300.69;;;22.04;45.73
74329;BME280;62749;51.982;5.916;2023-06-10T01:00:40;101296.41;;;22.02;45.42
74329;BME280;62749;51.982;5.916;2023-06-10T01:03:11;101298.50;;;21.98;45.50
74329;BME280;62749;51.982;5.916;2023-06-10T01:05:50;101297.28;;;21.91;45.74
74329;BME280;62749;51.982;5.916;2023-06-10T01:08:32;101291.91;;;21.91;45.52
74329;BME280;62749;51.982;5.916;2023-06-10T01:11:08;101292.44;;;21.85;44.96
74329;BME280;62749;51.982;5.916;2023-06-10T01:13:45;101294.63;;;21.80;45.48
74329;BME280;62749;51.982;5.916;2023-06-10T01:16:15;101299.28;;;21.77;45.04
74329;BME280;62749;51.982;5.916;2023-06-10T01:18:44;101299.66;;;21.73;45.18
74329;BME280;62749;51.982;5.916;2023-06-10T01:21:19;101303.47;;;21.70;45.07
74329;BME280;62749;51.982;5.916;2023-06-10T01:23:54;101307.63;;;21.74;45.16
74329;BME280;62749;51.982;5.916;2023-06-10T01:26:29;101305.41;;;21.68;45.50
74329;BME280;62749;51.982;5.916;2023-06-10T01:29:06;101311.03;;;21.65;45.71
74329;BME280;62749;51.982;5.916;2023-06-10T01:31:42;101307.88;;;21.60;45.57
74329;BME280;62749;51.982;5.916;2023-06-10T01:34:15;101303.44;;;21.59;45.50
74329;BME280;62749;51.982;5.916;2023-06-10T01:36:49;101304.19;;;21.50;45.73
74329;BME280;62749;51.982;5.916;2023-06-10T01:39:23;101303.72;;;21.44;45.73
74329;BME280;62749;51.982;5.916;2023-06-10T01:41:54;101309.94;;;21.45;46.05
74329;BME280;62749;51.982;5.916;2023-06-10T01:44:24;101307.00;;;21.37;45.66
74329;BME280;62749;51.982;5.916;2023-06-10T01:46:53;101306.03;;;21.38;45.80
74329;BME280;62749;51.982;5.916;2023-06-10T01:49:22;101306.78;;;21.28;46.37
74329;BME280;62749;51.982;5.916;2023-06-10T01:51:55;101317.03;;;21.23;46.23
74329;BME280;62749;51.982;5.916;2023-06-10T01:54:24;101303.09;;;21.18;46.21
74329;BME280;62749;51.982;5.916;2023-06-10T01:56:54;101311.50;;;21.13;46.81
74329;BME280;62749;51.982;5.916;2023-06-10T01:59:23;101309.69;;;21.14;46.39
74329;BME280;62749;51.982;5.916;2023-06-10T02:01:52;101305.16;;;21.03;46.72
74329;BME280;62749;51.982;5.916;2023-06-10T02:04:22;101310.53;;;21.03;46.84
74329;BME280;62749;51.982;5.916;2023-06-10T02:07:04;101313.22;;;21.03;47.34
74329;BME280;62749;51.982;5.916;2023-06-10T02:09:34;101313.81;;;20.95;47.54
74329;BME280;62749;51.982;5.916;2023-06-10T02:12:05;101306.13;;;20.91;47.72
74329;BME280;62749;51.982;5.916;2023-06-10T02:14:35;101314.03;;;20.92;47.95
74329;BME280;62749;51.982;5.916;2023-06-10T02:17:05;101302.31;;;20.82;48.07
74329;BME280;62749;51.982;5.916;2023-06-10T02:19:39;101310.28;;;20.83;48.56
74329;BME280;62749;51.982;5.916;2023-06-10T02:22:11;101311.47;;;20.79;48.40
74329;BME280;62749;51.982;5.916;2023-06-10T02:24:41;101307.69;;;20.82;48.35
74329;BME280;62749;51.982;5.916;2023-06-10T02:27:10;101314.38;;;20.76;48.54
74329;BME280;62749;51.982;5.916;2023-06-10T02:29:40;101310.31;;;20.70;49.31
74329;BME280;62749;51.982;5.916;2023-06-10T02:32:09;101316.09;;;20.77;49.21
74329;BME280;62749;51.982;5.916;2023-06-10T02:34:39;101316.63;;;20.82;49.38
74329;BME280;62749;51.982;5.916;2023-06-10T02:37:11;101321.34;;;20.79;49.33
74329;BME280;62749;51.982;5.916;2023-06-10T02:39:41;101322.94;;;20.81;49.44
74329;BME280;62749;51.982;5.916;2023-06-10T02:42:10;101315.34;;;20.75;49.86
74329;BME280;62749;51.982;5.916;2023-06-10T02:44:40;101316.03;;;20.66;49.97
74329;BME280;62749;51.982;5.916;2023-06-10T02:47:09;101318.56;;;20.56;50.43
74329;BME280;62749;51.982;5.916;2023-06-10T02:49:38;101320.50;;;20.54;50.70
74329;BME280;62749;51.982;5.916;2023-06-10T02:52:10;101325.28;;;20.62;50.73
74329;BME280;62749;51.982;5.916;2023-06-10T02:54:40;101321.25;;;20.56;50.89
74329;BME280;62749;51.982;5.916;2023-06-10T02:57:09;101323.91;;;20.45;51.30
74329;BME280;62749;51.982;5.916;2023-06-10T02:59:40;101324.16;;;20.53;51.40
74329;BME280;62749;51.982;5.916;2023-06-10T03:02:10;101327.84;;;20.52;51.08
74329;BME280;62749;51.982;5.916;2023-06-10T03:04:39;101325.69;;;20.33;51.43
74329;BME280;62749;51.982;5.916;2023-06-10T03:07:12;101325.22;;;20.39;51.37
74329;BME280;62749;51.982;5.916;2023-06-10T03:09:42;101322.66;;;20.37;51.90
74329;BME280;62749;51.982;5.916;2023-06-10T03:12:11;101317.38;;;20.36;51.78
74329;BME280;62749;51.982;5.916;2023-06-10T03:14:40;101327.38;;;20.34;52.08
74329;BME280;62749;51.982;5.916;2023-06-10T03:17:10;101326.00;;;20.28;52.13
74329;BME280;62749;51.982;5.916;2023-06-10T03:19:39;101326.13;;;20.27;52.28
74329;BME280;62749;51.982;5.916;2023-06-10T03:22:13;101329.16;;;20.22;52.61
74329;BME280;62749;51.982;5.916;2023-06-10T03:24:43;101324.16;;;20.17;52.83
74329;BME280;62749;51.982;5.916;2023-06-10T03:27:13;101325.00;;;20.18;52.88
74329;BME280;62749;51.982;5.916;2023-06-10T03:29:43;101334.06;;;20.28;52.81
74329;BME280;62749;51.982;5.916;2023-06-10T03:32:12;101333.78;;;20.20;52.62
74329;BME280;62749;51.982;5.916;2023-06-10T03:34:42;101338.97;;;20.10;53.07
74329;BME280;62749;51.982;5.916;2023-06-10T03:37:14;101336.63;;;20.05;53.02
74329;BME280;62749;51.982;5.916;2023-06-10T03:39:44;101337.50;;;20.06;53.29
74329;BME280;62749;51.982;5.916;2023-06-10T03:42:13;101338.91;;;19.99;53.38
74329;BME280;62749;51.982;5.916;2023-06-10T03:44:42;101338.47;;;20.05;53.86
74329;BME280;62749;51.982;5.916;2023-06-10T03:47:12;101345.69;;;19.91;53.67
74329;BME280;62749;51.982;5.916;2023-06-10T03:49:42;101340.56;;;19.88;53.95
74329;BME280;62749;51.982;5.916;2023-06-10T03:52:14;101345.16;;;19.86;54.20
74329;BME280;62749;51.982;5.916;2023-06-10T03:54:43;101347.41;;;19.80;54.36
74329;BME280;62749;51.982;5.916;2023-06-10T03:57:13;101347.19;;;19.70;54.50
74329;BME280;62749;51.982;5.916;2023-06-10T03:59:42;101339.69;;;19.75;54.96
74329;BME280;62749;51.982;5.916;2023-06-10T04:02:11;101342.16;;;19.78;54.47
74329;BME280;62749;51.982;5.916;2023-06-10T04:04:41;101345.91;;;19.75;54.69
74329;BME280;62749;51.982;5.916;2023-06-10T04:07:13;101346.38;;;19.56;55.23
74329;BME280;62749;51.982;5.916;2023-06-10T04:09:43;101350.69;;;19.59;55.29
74329;BME280;62749;51.982;5.916;2023-06-10T04:12:13;101347.88;;;19.60;55.41
74329;BME280;62749;51.982;5.916;2023-06-10T04:14:43;101348.09;;;19.57;55.21
74329;BME280;62749;51.982;5.916;2023-06-10T04:17:12;101343.81;;;19.55;55.88
74329;BME280;62749;51.982;5.916;2023-06-10T04:19:41;101352.47;;;19.58;56.01
74329;BME280;62749;51.982;5.916;2023-06-10T04:22:11;101359.34;;;19.62;55.37
74329;BME280;62749;51.982;5.916;2023-06-10T04:24:43;101358.16;;;19.67;55.54
74329;BME280;62749;51.982;5.916;2023-06-10T04:27:12;101356.38;;;19.54;55.78
74329;BME280;62749;51.982;5.916;2023-06-10T04:29:41;101361.69;;;19.67;55.81
74329;BME280;62749;51.982;5.916;2023-06-10T04:32:11;101362.66;;;19.66;55.64
74329;BME280;62749;51.982;5.916;2023-06-10T04:34:40;101370.28;;;19.59;56.09
74329;BME280;62749;51.982;5.916;2023-06-10T04:37:09;101366.13;;;19.55;55.98
74329;BME280;62749;51.982;5.916;2023-06-10T04:39:39;101365.78;;;19.60;56.09
74329;BME280;62749;51.982;5.916;2023-06-10T04:42:11;101370.28;;;19.59;56.47
74329;BME280;62749;51.982;5.916;2023-06-10T04:44:40;101361.56;;;19.69;56.19
74329;BME280;62749;51.982;5.916;2023-06-10T04:47:09;101363.53;;;19.67;56.39
74329;BME280;62749;51.982;5.916;2023-06-10T04:49:39;101366.84;;;19.70;56.21
74329;BME280;62749;51.982;5.916;2023-06-10T04:52:08;101366.38;;;19.76;56.35
74329;BME280;62749;51.982;5.916;2023-06-10T04:54:37;101365.66;;;19.74;56.22
74329;BME280;62749;51.982;5.916;2023-06-10T04:57:07;101370.34;;;19.71;56.06
74329;BME280;62749;51.982;5.916;2023-06-10T04:59:40;101374.88;;;19.70;56.39
74329;BME280;62749;51.982;5.916;2023-06-10T05:02:09;101376.13;;;19.77;56.46
74329;BME280;62749;51.982;5.916;2023-06-10T05:04:39;101372.84;;;19.87;56.28
74329;BME280;62749;51.982;5.916;2023-06-10T05:07:08;101375.47;;;20.00;56.06
74329;BME280;62749;51.982;5.916;2023-06-10T05:09:38;101371.75;;;19.89;56.01
74329;BME280;62749;51.982;5.916;2023-06-10T05:12:08;101379.47;;;19.94;55.94
74329;BME280;62749;51.982;5.916;2023-06-10T05:14:40;101379.13;;;19.99;56.00
74329;BME280;62749;51.982;5.916;2023-06-10T05:17:11;101373.53;;;20.02;55.90
74329;BME280;62749;51.982;5.916;2023-06-10T05:19:40;101370.47;;;19.95;56.03
74329;BME280;62749;51.982;5.916;2023-06-10T05:22:10;101376.22;;;20.02;56.01
74329;BME280;62749;51.982;5.916;2023-06-10T05:24:40;101378.78;;;20.03;56.06
74329;BME280;62749;51.982;5.916;2023-06-10T05:27:10;101372.03;;;19.98;56.04
74329;BME280;62749;51.982;5.916;2023-06-10T05:29:42;101377.81;;;20.04;56.09
74329;BME280;62749;51.982;5.916;2023-06-10T05:32:11;101379.94;;;20.12;55.94
74329;BME280;62749;51.982;5.916;2023-06-10T05:34:41;101376.81;;;20.18;55.86
74329;BME280;62749;51.982;5.916;2023-06-10T05:37:10;101376.81;;;20.18;55.84
74329;BME280;62749;51.982;5.916;2023-06-10T05:39:39;101386.88;;;20.28;55.56
74329;BME280;62749;51.982;5.916;2023-06-10T05:42:09;101386.66;;;20.31;55.61
74329;BME280;62749;51.982;5.916;2023-06-10T05:44:38;101385.97;;;20.40;55.45
74329;BME280;62749;51.982;5.916;2023-06-10T05:47:10;101386.69;;;20.42;55.00
74329;BME280;62749;51.982;5.916;2023-06-10T05:49:39;101388.41;;;20.43;54.58
74329;BME280;62749;51.982;5.916;2023-06-10T05:52:09;101381.78;;;20.36;54.73
74329;BME280;62749;51.982;5.916;2023-06-10T05:54:38;101394.34;;;20.35;55.04
74329;BME280;62749;51.982;5.916;2023-06-10T05:57:07;101385.16;;;20.51;55.08
74329;BME280;62749;51.982;5.916;2023-06-10T05:59:37;101382.22;;;20.54;54.44
74329;BME280;62749;51.982;5.916;2023-06-10T06:02:06;101377.25;;;20.61;54.29
74329;BME280;62749;51.982;5.916;2023-06-10T06:04:38;101379.63;;;20.65;54.69
74329;BME280;62749;51.982;5.916;2023-06-10T06:07:08;101386.09;;;20.74;54.26
74329;BME280;62749;51.982;5.916;2023-06-10T06:09:37;101383.34;;;20.76;53.98
74329;BME280;62749;51.982;5.916;2023-06-10T06:12:07;101380.91;;;20.84;53.99
74329;BME280;62749;51.982;5.916;2023-06-10T06:14:38;101380.69;;;20.87;53.22
74329;BME280;62749;51.982;5.916;2023-06-10T06:17:08;101379.09;;;20.84;53.59
74329;BME280;62749;51.982;5.916;2023-06-10T06:19:40;101383.72;;;20.82;53.57
74329;BME280;62749;51.982;5.916;2023-06-10T06:22:09;101381.69;;;20.97;52.95
74329;BME280;62749;51.982;5.916;2023-06-10T06:24:39;101384.00;;;21.02;53.21
74329;BME280;62749;51.982;5.916;2023-06-10T06:27:08;101384.53;;;21.07;53.07
74329;BME280;62749;51.982;5.916;2023-06-10T06:29:37;101383.28;;;21.11;52.65
74329;BME280;62749;51.982;5.916;2023-06-10T06:32:07;101388.94;;;21.20;53.04
74329;BME280;62749;51.982;5.916;2023-06-10T06:34:39;101385.28;;;21.32;52.94
74329;BME280;62749;51.982;5.916;2023-06-10T06:37:09;101387.97;;;21.32;52.91
74329;BME280;62749;51.982;5.916;2023-06-10T06:39:38;101384.69;;;21.40;52.43
74329;BME280;62749;51.982;5.916;2023-06-10T06:42:07;101389.19;;;21.39;52.43
74329;BME280;62749;51.982;5.916;2023-06-10T06:44:37;101393.22;;;21.45;52.05
74329;BME280;62749;51.982;5.916;2023-06-10T06:47:07;101386.78;;;21.59;52.48
74329;BME280;62749;51.982;5.916;2023-06-10T06:49:36;101391.69;;;21.65;51.93
74329;BME280;62749;51.982;5.916;2023-06-10T06:52:08;101397.44;;;21.72;51.85
74329;BME280;62749;51.982;5.916;2023-06-10T06:54:38;101394.88;;;21.82;52.07
74329;BME280;62749;51.982;5.916;2023-06-10T06:57:07;101397.69;;;21.80;51.36
74329;BME280;62749;51.982;5.916;2023-06-10T06:59:51;101391.06;;;21.84;51.37
74329;BME280;62749;51.982;5.916;2023-06-10T07:02:20;101396.06;;;22.00;51.45
74329;BME280;62749;51.982;5.916;2023-06-10T07:04:50;101395.91;;;22.13;50.97
74329;BME280;62749;51.982;5.916;2023-06-10T07:07:24;101393.44;;;22.21;50.36
74329;BME280;62749;51.982;5.916;2023-06-10T07:09:53;101403.19;;;22.34;50.61
74329;BME280;62749;51.982;5.916;2023-06-10T07:12:23;101402.69;;;22.40;49.71
74329;BME280;62749;51.982;5.916;2023-06-10T07:14:52;101401.50;;;22.44;49.93
74329;BME280;62749;51.982;5.916;2023-06-10T07:17:22;101399.00;;;22.52;48.99
74329;BME280;62749;51.982;5.916;2023-06-10T07:19:51;101391.03;;;22.62;49.44
74329;BME280;62749;51.982;5.916;2023-06-10T07:22:37;101394.47;;;22.64;49.16
74329;BME280;62749;51.982;5.916;2023-06-10T07:25:08;101397.19;;;22.74;48.92
74329;BME280;62749;51.982;5.916;2023-06-10T07:27:37;101398.00;;;22.86;48.26
74329;BME280;62749;51.982;5.916;2023-06-10T07:30:07;101393.88;;;22.82;48.89
74329;BME280;62749;51.982;5.916;2023-06-10T07:32:37;101403.88;;;22.91;48.88
74329;BME280;62749;51.982;5.916;2023-06-10T07:35:09;101397.31;;;23.05;47.67
74329;BME280;62749;51.982;5.916;2023-06-10T07:37:42;101400.53;;;23.20;47.08
74329;BME280;62749;51.982;5.916;2023-06-10T07:40:12;101404.81;;;23.23;47.38
74329;BME280;62749;51.982;5.916;2023-06-10T07:42:41;101404.34;;;23.39;46.56
74329;BME280;62749;51.982;5.916;2023-06-10T07:45:10;101398.94;;;23.39;47.18
74329;BME280;62749;51.982;5.916;2023-06-10T07:47:40;101406.06;;;23.40;47.22
74329;BME280;62749;51.982;5.916;2023-06-10T07:50:09;101405.38;;;23.48;46.13
74329;BME280;62749;51.982;5.916;2023-06-10T07:52:41;101409.31;;;23.43;46.40
74329;BME280;62749;51.982;5.916;2023-06-10T07:55:11;101405.56;;;23.56;45.87
74329;BME280;62749;51.982;5.916;2023-06-10T07:57:40;101409.56;;;23.62;46.08
74329;BME280;62749;51.982;5.916;2023-06-10T08:00:10;101406.75;;;23.73;45.71
74329;BME280;62749;51.982;5.916;2023-06-10T08:02:40;101408.34;;;23.85;45.99
74329;BME280;62749;51.982;5.916;2023-06-10T08:05:09;101412.78;;;23.86;45.13
74329;BME280;62749;51.982;5.916;2023-06-10T08:07:39;101409.81;;;23.89;45.57
74329;BME280;62749;51.982;5.916;2023-06-10T08:10:11;101408.66;;;23.92;45.09
74329;BME280;62749;51.982;5.916;2023-06-10T08:12:40;101411.88;;;24.07;45.76
74329;BME280;62749;51.982;5.916;2023-06-10T08:15:10;101409.94;;;24.29;44.93
74329;BME280;62749;51.982;5.916;2023-06-10T08:17:39;101415.91;;;24.42;44.39
74329;BME280;62749;51.982;5.916;2023-06-10T08:20:09;101416.34;;;24.47;43.96
74329;BME280;62749;51.982;5.916;2023-06-10T08:22:38;101419.34;;;24.44;43.14
74329;BME280;62749;51.982;5.916;2023-06-10T08:25:11;101423.72;;;24.55;44.33
74329;BME280;62749;51.982;5.916;2023-06-10T08:27:40;101428.16;;;24.66;43.83
74329;BME280;62749;51.982;5.916;2023-06-10T08:30:16;101420.19;;;24.55;43.94
74329;BME280;62749;51.982;5.916;2023-06-10T08:32:45;101426.03;;;24.50;43.81
74329;BME280;62749;51.982;5.916;2023-06-10T08:35:15;101428.16;;;24.66;43.44
74329;BME280;62749;51.982;5.916;2023-06-10T08:37:44;101421.81;;;24.77;43.96
74329;BME280;62749;51.982;5.916;2023-06-10T08:40:16;101422.47;;;24.89;43.42
74329;BME280;62749;51.982;5.916;2023-06-10T08:42:52;101426.91;;;24.90;42.53
74329;BME280;62749;51.982;5.916;2023-06-10T08:45:23;101413.50;;;25.08;42.01
74329;BME280;62749;51.982;5.916;2023-06-10T08:47:53;101415.66;;;25.04;43.33
74329;BME280;62749;51.982;5.916;2023-06-10T08:50:28;101410.78;;;25.18;42.09
74329;BME280;62749;51.982;5.916;2023-06-10T08:53:00;101415.56;;;25.34;43.12
74329;BME280;62749;51.982;5.916;2023-06-10T08:55:36;101418.53;;;25.60;41.64
74329;BME280;62749;51.982;5.916;2023-06-10T08:58:06;101422.75;;;25.72;41.12
74329;BME280;62749;51.982;5.916;2023-06-10T09:00:36;101419.22;;;25.90;41.71
74329;BME280;62749;51.982;5.916;2023-06-10T09:03:06;101418.44;;;26.08;41.16
74329;BME280;62749;51.982;5.916;2023-06-10T09:05:35;101418.88;;;26.13;40.42
74329;BME280;62749;51.982;5.916;2023-06-10T09:08:06;101421.66;;;26.21;40.26
74329;BME280;62749;51.982;5.916;2023-06-10T09:10:38;101417.88;;;26.04;40.53
74329;BME280;62749;51.982;5.916;2023-06-10T09:13:08;101414.66;;;26.00;40.27
74329;BME280;62749;51.982;5.916;2023-06-10T09:15:38;101414.03;;;26.07;40.44
74329;BME280;62749;51.982;5.916;2023-06-10T09:18:08;101409.91;;;26.30;40.72
74329;BME280;62749;51.982;5.916;2023-06-10T09:20:38;101406.72;;;26.53;40.46
74329;BME280;62749;51.982;5.916;2023-06-10T09:23:08;101418.22;;;26.83;39.67
74329;BME280;62749;51.982;5.916;2023-06-10T09:25:41;101413.56;;;26.93;39.31
74329;BME280;62749;51.982;5.916;2023-06-10T09:28:15;101408.44;;;27.08;38.49
74329;BME280;62749;51.982;5.916;2023-06-10T09:30:44;101413.38;;;27.13;38.50
74329;BME280;62749;51.982;5.916;2023-06-10T09:33:15;101414.09;;;27.23;38.78
74329;BME280;62749;51.982;5.916;2023-06-10T09:35:46;101410.22;;;27.26;37.72
74329;BME280;62749;51.982;5.916;2023-06-10T09:38:19;101406.72;;;27.34;36.76
74329;BME280;62749;51.982;5.916;2023-06-10T09:40:53;101405.56;;;27.36;37.19
74329;BME280;62749;51.982;5.916;2023-06-10T09:43:23;101408.28;;;27.71;37.14
74329;BME280;62749;51.982;5.916;2023-06-10T09:46:08;101417.88;;;27.92;37.24
74329;BME280;62749;51.982;5.916;2023-06-10T09:48:43;101414.09;;;28.11;37.85
74329;BME280;62749;51.982;5.916;2023-06-10T09:51:34;101412.56;;;28.16;36.91
74329;BME280;62749;51.982;5.916;2023-06-10T09:54:03;101413.25;;;28.19;35.06
74329;BME280;62749;51.982;5.916;2023-06-10T09:56:36;101413.84;;;28.04;35.27
74329;BME280;62749;51.982;5.916;2023-06-10T09:59:09;101407.97;;;28.17;35.54
74329;BME280;62749;51.982;5.916;2023-06-10T10:01:38;101402.22;;;28.20;34.77
74329;BME280;62749;51.982;5.916;2023-06-10T10:04:07;101404.09;;;28.20;35.21
74329;BME280;62749;51.982;5.916;2023-06-10T10:06:38;101404.94;;;28.20;34.54
74329;BME280;62749;51.982;5.916;2023-06-10T10:09:08;101402.75;;;28.32;35.54
74329;BME280;62749;51.982;5.916;2023-06-10T10:11:40;101404.59;;;28.31;35.23
74329;BME280;62749;51.982;5.916;2023-06-10T10:14:12;101402.09;;;28.55;33.37
74329;BME280;62749;51.982;5.916;2023-06-10T10:16:45;101397.84;;;28.36;33.70
74329;BME280;62749;51.982;5.916;2023-06-10T10:19:20;101404.47;;;28.66;34.21
74329;BME280;62749;51.982;5.916;2023-06-10T10:21:54;101405.53;;;28.73;33.81
74329;BME280;62749;51.982;5.916;2023-06-10T10:24:32;101399.22;;;28.98;33.13
74329;BME280;62749;51.982;5.916;2023-06-10T10:27:13;101396.47;;;29.22;32.86
74329;BME280;62749;51.982;5.916;2023-06-10T10:29:47;101397.88;;;29.02;31.58
74329;BME280;62749;51.982;5.916;2023-06-10T10:32:26;101398.34;;;29.22;32.76
74329;BME280;62749;51.982;5.916;2023-06-10T10:35:05;101397.97;;;29.25;31.90
74329;BME280;62749;51.982;5.916;2023-06-10T10:37:36;101399.16;;;29.31;30.61
74329;BME280;62749;51.982;5.916;2023-06-10T10:40:08;101406.84;;;29.19;31.02
74329;BME280;62749;51.982;5.916;2023-06-10T10:42:43;101392.63;;;28.92;31.37
74329;BME280;62749;51.982;5.916;2023-06-10T10:45:12;101391.25;;;29.04;31.14
74329;BME280;62749;51.982;5.916;2023-06-10T10:47:44;101389.00;;;29.24;31.30
74329;BME280;62749;51.982;5.916;2023-06-10T10:50:15;101402.34;;;29.59;28.60
74329;BME280;62749;51.982;5.916;2023-06-10T10:52:53;101394.34;;;29.66;28.68
74329;BME280;62749;51.982;5.916;2023-06-10T10:55:24;101383.84;;;30.72;28.21
74329;BME280;62749;51.982;5.916;2023-06-10T10:57:58;101386.00;;;32.70;25.60
74329;BME280;62749;51.982;5.916;2023-06-10T11:00:29;101392.28;;;33.56;23.80
74329;BME280;62749;51.982;5.916;2023-06-10T11:03:05;101387.66;;;34.05;23.87
74329;BME280;62749;51.982;5.916;2023-06-10T11:05:37;101392.16;;;34.73;22.43
74329;BME280;62749;51.982;5.916;2023-06-10T11:08:08;101383.94;;;35.14;21.70
74329;BME280;62749;51.982;5.916;2023-06-10T11:10:40;101384.09;;;35.46;21.58
74329;BME280;62749;51.982;5.916;2023-06-10T11:13:14;101387.13;;;35.04;21.55
74329;BME280;62749;51.982;5.916;2023-06-10T11:15:45;101389.41;;;35.21;22.36
74329;BME280;62749;51.982;5.916;2023-06-10T11:18:20;101384.09;;;35.46;21.35
74329;BME280;62749;51.982;5.916;2023-06-10T11:20:55;101379.19;;;35.61;21.28
74329;BME280;62749;51.982;5.916;2023-06-10T11:23:49;101376.41;;;35.68;21.18
74329;BME280;62749;51.982;5.916;2023-06-10T11:26:43;101371.50;;;35.70;20.37
74329;BME280;62749;51.982;5.916;2023-06-10T11:29:15;101368.91;;;36.28;20.22
74329;BME280;62749;51.982;5.916;2023-06-10T11:31:50;101385.59;;;36.83;20.06
74329;BME280;62749;51.982;5.916;2023-06-10T11:34:23;101373.75;;;36.58;19.44
74329;BME280;62749;51.982;5.916;2023-06-10T11:36:54;101384.03;;;36.69;19.82
74329;BME280;62749;51.982;5.916;2023-06-10T11:39:24;101384.72;;;36.64;19.93
74329;BME280;62749;51.982;5.916;2023-06-10T11:41:53;101381.06;;;36.70;20.06
74329;BME280;62749;51.982;5.916;2023-06-10T11:44:27;101376.94;;;36.80;19.07
74329;BME280;62749;51.982;5.916;2023-06-10T11:46:58;101374.53;;;36.90;19.57
74329;BME280;62749;51.982;5.916;2023-06-10T11:49:27;101381.53;;;37.11;19.18
74329;BME280;62749;51.982;5.916;2023-06-10T11:51:57;101377.31;;;37.27;19.60
74329;BME280;62749;51.982;5.916;2023-06-10T11:54:26;101361.50;;;37.04;19.19
74329;BME280;62749;51.982;5.916;2023-06-10T11:56:58;101369.47;;;37.12;19.04
74329;BME280;62749;51.982;5.916;2023-06-10T11:59:32;101357.13;;;36.71;18.92
74329;BME280;62749;51.982;5.916;2023-06-10T12:02:01;101375.63;;;36.32;19.69
74329;BME280;62749;51.982;5.916;2023-06-10T12:04:31;101363.00;;;36.75;19.74
74329;BME280;62749;51.982;5.916;2023-06-10T12:07:00;101369.00;;;36.39;19.23
74329;BME280;62749;51.982;5.916;2023-06-10T12:09:30;101358.22;;;36.45;19.42
74329;BME280;62749;51.982;5.916;2023-06-10T12:12:01;101363.97;;;35.52;20.32
74329;BME280;62749;51.982;5.916;2023-06-10T12:14:54;101353.53;;;34.35;21.77
74329;BME280;62749;51.982;5.916;2023-06-10T12:17:49;101341.53;;;34.29;23.02
74329;BME280;62749;51.982;5.916;2023-06-10T12:20:26;101346.19;;;34.69;21.66
74329;BME280;62749;51.982;5.916;2023-06-10T12:22:56;101338.16;;;34.74;21.82
74329;BME280;62749;51.982;5.916;2023-06-10T12:25:28;101332.91;;;34.66;21.47
74329;BME280;62749;51.982;5.916;2023-06-10T12:27:58;101332.00;;;34.18;22.30
74329;BME280;62749;51.982;5.916;2023-06-10T12:30:39;101335.63;;;34.32;22.46
74329;BME280;62749;51.982;5.916;2023-06-10T12:33:16;101334.16;;;34.56;21.61
74329;BME280;62749;51.982;5.916;2023-06-10T12:35:49;101326.97;;;34.96;21.18
74329;BME280;62749;51.982;5.916;2023-06-10T12:38:23;101345.34;;;34.68;21.19
74329;BME280;62749;51.982;5.916;2023-06-10T12:40:53;101331.88;;;34.47;22.13
74329;BME280;62749;51.982;5.916;2023-06-10T12:43:23;101331.22;;;34.45;21.86
74329;BME280;62749;51.982;5.916;2023-06-10T12:45:55;101324.88;;;34.44;21.50
74329;BME280;62749;51.982;5.916;2023-06-10T12:48:24;101323.59;;;34.40;22.20
74329;BME280;62749;51.982;5.916;2023-06-10T12:50:55;101327.13;;;35.21;21.67
74329;BME280;62749;51.982;5.916;2023-06-10T12:53:26;101320.69;;;35.47;20.80
74329;BME280;62749;51.982;5.916;2023-06-10T12:55:56;101325.22;;;35.22;21.26
74329;BME280;62749;51.982;5.916;2023-06-10T12:58:27;101328.00;;;34.88;21.02
74329;BME280;62749;51.982;5.916;2023-06-10T13:00:59;101324.06;;;35.50;20.77
74329;BME280;62749;51.982;5.916;2023-06-10T13:03:28;101329.84;;;35.28;21.40
74329;BME280;62749;51.982;5.916;2023-06-10T13:05:57;101325.06;;;34.29;21.02
74329;BME280;62749;51.982;5.916;2023-06-10T13:08:27;101327.16;;;34.27;22.07
74329;BME280;62749;51.982;5.916;2023-06-10T13:10:57;101322.06;;;35.11;21.03